sensor_id;sensor_type;location;lat;lon;timestamp;pressure;altitude;pressure_sealevel;temperature;humidity
27014;BME280;14556;52.222;4.510;2022-07-29T00:01:43;101708.25;;;16.22;100.00
27014;BME280;14556;52.222;4.510;2022-07-29T00:04:10;101702.22;;;16.20;100.00
27014;BME280;14556;52.222;4.510;2022-07-29T00:06:37;101699.53;;;16.20;100.00
27014;BME280;14556;52.222;4.510;2022-07-29T00:09:04;101689.78;;;16.19;100.00
27014;BME280;14556;52.222;4.510;2022-07-29T00:11:30;101698.72;;;16.19;100.00
27014;BME280;14556;52.222;4.510;2022-07-29T00:13:57;101694.13;;;16.20;100.00
27014;BME280;14556;52.222;4.510;2022-07-29T00:16:23;101699.34;;;16.15;100.00
27014;BME280;14556;52.222;4.510;2022-07-29T00:18:49;101692.53;;;16.12;100.00
27014;BME280;14556;52.222;4.510;2022-07-29T00:21:16;101698.75;;;16.13;100.00
27014;BME280;14556;52.222;4.510;2022-07-29T00:23:42;101686.72;;;16.09;100.00
27014;BME280;14556;52.222;4.510;2022-07-29T00:26:09;101686.72;;;16.09;100.00
27014;BME280;14556;52.222;4.510;2022-07-29T00:28:35;101680.28;;;16.10;100.00
27014;BME280;14556;52.222;4.510;2022-07-29T00:31:02;101679.66;;;16.14;100.00
27014;BME280;14556;52.222;4.510;2022-07-29T00:33:29;101680.66;;;16.13;100.00
27014;BME280;14556;52.222;4.510;2022-07-29T00:35:55;101681.75;;;16.05;100.00
27014;BME280;14556;52.222;4.510;2022-07-29T00:38:22;101674.50;;;15.99;100.00
27014;BME280;14556;52.222;4.510;2022-07-29T00:40:49;101678.44;;;15.97;100.00
27014;BME280;14556;52.222;4.510;2022-07-29T00:43:16;101681.75;;;15.99;100.00
27014;BME280;14556;52.222;4.510;2022-07-29T00:45:43;101684.66;;;15.97;100.00
27014;BME280;14556;52.222;4.510;2022-07-29T00:48:10;101680.75;;;16.00;100.00
27014;BME280;14556;52.222;4.510;2022-07-29T00:50:37;101676.19;;;15.93;100.00
27014;BME280;14556;52.222;4.510;2022-07-29T00:53:05;101671.81;;;15.99;100.00
27014;BME280;14556;52.222;4.510;2022-07-29T00:55:32;101671.81;;;15.99;100.00
27014;BME280;14556;52.222;4.510;2022-07-29T00:57:59;101677.22;;;15.92;100.00
27014;BME280;14556;52.222;4.510;2022-07-29T01:00:27;101671.63;;;15.87;100.00
27014;BME280;14556;52.222;4.510;2022-07-29T01:02:56;101668.53;;;15.83;100.00
27014;BME280;14556;52.222;4.510;2022-07-29T01:05:25;101673.94;;;15.83;100.00
27014;BME280;14556;52.222;4.510;2022-07-29T01:08:14;101651.75;;;15.75;100.00
27014;BME280;14556;52.222;4.510;2022-07-29T01:10:41;101679.75;;;15.80;100.00
27014;BME280;14556;52.222;4.510;2022-07-29T01:13:10;101675.41;;;15.79;100.00
27014;BME280;14556;52.222;4.510;2022-07-29T01:15:43;101679.13;;;15.78;100.00
27014;BME280;14556;52.222;4.510;2022-07-29T01:23:57;101649.09;;;15.68;100.00
27014;BME280;14556;52.222;4.510;2022-07-29T01:26:33;101665.25;;;15.75;100.00
27014;BME280;14556;52.222;4.510;2022-07-29T01:29:05;101658.19;;;15.74;100.00
27014;BME280;14556;52.222;4.510;2022-07-29T01:31:59;101662.13;;;15.71;100.00
27014;BME280;14556;52.222;4.510;2022-07-29T01:34:35;101631.69;;;15.57;100.00
27014;BME280;14556;52.222;4.510;2022-07-29T01:37:17;101663.41;;;15.68;100.00
27014;BME280;14556;52.222;4.510;2022-07-29T01:39:47;101654.47;;;15.68;100.00
27014;BME280;14556;52.222;4.510;2022-07-29T01:42:26;101647.25;;;15.62;100.00
27014;BME280;14556;52.222;4.510;2022-07-29T01:44:57;101656.16;;;15.62;100.00
27014;BME280;14556;52.222;4.510;2022-07-29T01:47:37;101649.13;;;15.61;100.00
27014;BME280;14556;52.222;4.510;2022-07-29T01:50:07;101640.44;;;15.52;100.00
27014;BME280;14556;52.222;4.510;2022-07-29T01:52:39;101652.03;;;15.59;100.00
27014;BME280;14556;52.222;4.510;2022-07-29T01:55:13;101653.25;;;15.57;100.00
27014;BME280;14556;52.222;4.510;2022-07-29T01:57:45;101645.41;;;15.55;100.00
27014;BME280;14556;52.222;4.510;2022-07-29T02:00:13;101647.47;;;15.53;100.00
27014;BME280;14556;52.222;4.510;2022-07-29T02:02:42;101631.50;;;15.52;100.00
27014;BME280;14556;52.222;4.510;2022-07-29T02:05:18;101631.72;;;15.50;100.00
27014;BME280;14556;52.222;4.510;2022-07-29T02:07:47;101626.72;;;15.54;100.00
27014;BME280;14556;52.222;4.510;2022-07-29T02:10:18;101628.41;;;15.55;100.00
27014;BME280;14556;52.222;4.510;2022-07-29T02:12:52;101630.88;;;15.56;100.00
27014;BME280;14556;52.222;4.510;2022-07-29T02:15:23;101606.25;;;15.32;100.00
27014;BME280;14556;52.222;4.510;2022-07-29T02:17:57;101608.16;;;15.32;100.00
27014;BME280;14556;52.222;4.510;2022-07-29T02:20:25;101634.41;;;15.50;100.00
27014;BME280;14556;52.222;4.510;2022-07-29T02:22:53;101627.59;;;15.47;100.00
27014;BME280;14556;52.222;4.510;2022-07-29T02:25:21;101625.13;;;15.46;100.00
27014;BME280;14556;52.222;4.510;2022-07-29T02:27:50;101620.97;;;15.43;100.00
27014;BME280;14556;52.222;4.510;2022-07-29T02:30:18;101620.56;;;15.40;100.00
27014;BME280;14556;52.222;4.510;2022-07-29T02:32:47;101626.56;;;15.42;100.00
27014;BME280;14556;52.222;4.510;2022-07-29T02:35:15;101623.22;;;15.46;100.00
27014;BME280;14556;52.222;4.510;2022-07-29T02:37:44;101629.88;;;15.44;100.00
27014;BME280;14556;52.222;4.510;2022-07-29T02:40:11;101625.94;;;15.40;100.00
27014;BME280;14556;52.222;4.510;2022-07-29T02:42:42;101606.06;;;15.27;100.00
27014;BME280;14556;52.222;4.510;2022-07-29T02:45:10;101619.34;;;15.35;100.00
27014;BME280;14556;52.222;4.510;2022-07-29T02:47:41;101629.28;;;15.35;100.00
27014;BME280;14556;52.222;4.510;2022-07-29T02:50:32;101612.31;;;15.21;100.00
27014;BME280;14556;52.222;4.510;2022-07-29T02:53:07;101623.50;;;15.31;100.00
27014;BME280;14556;52.222;4.510;2022-07-29T02:55:58;101618.94;;;15.32;100.00
27014;BME280;14556;52.222;4.510;2022-07-29T02:58:28;101616.63;;;15.29;100.00
27014;BME280;14556;52.222;4.510;2022-07-29T03:00:58;101625.56;;;15.29;100.00
27014;BME280;14556;52.222;4.510;2022-07-29T03:03:29;101609.00;;;15.19;100.00
27014;BME280;14556;52.222;4.510;2022-07-29T03:05:59;101620.38;;;15.28;100.00
27014;BME280;14556;52.222;4.510;2022-07-29T03:08:27;101623.09;;;15.28;100.00
27014;BME280;14556;52.222;4.510;2022-07-29T03:10:55;101622.66;;;15.24;100.00
27014;BME280;14556;52.222;4.510;2022-07-29T03:13:21;101631.19;;;15.21;100.00
27014;BME280;14556;52.222;4.510;2022-07-29T03:15:49;101627.88;;;15.19;100.00
27014;BME280;14556;52.222;4.510;2022-07-29T03:18:16;101624.97;;;15.20;100.00
27014;BME280;14556;52.222;4.510;2022-07-29T03:20:43;101626.84;;;15.20;100.00
27014;BME280;14556;52.222;4.510;2022-07-29T03:23:10;101624.53;;;15.17;100.00
27014;BME280;14556;52.222;4.510;2022-07-29T03:25:36;101621.66;;;15.11;100.00
27014;BME280;14556;52.222;4.510;2022-07-29T03:28:03;101618.38;;;15.09;100.00
27014;BME280;14556;52.222;4.510;2022-07-29T03:30:29;101617.31;;;15.10;100.00
27014;BME280;14556;52.222;4.510;2022-07-29T03:32:57;101619.38;;;15.08;100.00
27014;BME280;14556;52.222;4.510;2022-07-29T03:35:24;101622.72;;;15.04;100.00
27014;BME280;14556;52.222;4.510;2022-07-29T03:37:50;101626.44;;;15.03;100.00
27014;BME280;14556;52.222;4.510;2022-07-29T03:40:22;101587.53;;;14.85;100.00
27014;BME280;14556;52.222;4.510;2022-07-29T03:42:53;101617.13;;;14.98;100.00
27014;BME280;14556;52.222;4.510;2022-07-29T03:45:21;101609.69;;;15.01;100.00
27014;BME280;14556;52.222;4.510;2022-07-29T03:47:52;101615.06;;;15.01;100.00
27014;BME280;14556;52.222;4.510;2022-07-29T03:50:26;101613.81;;;15.03;100.00
27014;BME280;14556;52.222;4.510;2022-07-29T03:52:53;101605.09;;;15.01;100.00
27014;BME280;14556;52.222;4.510;2022-07-29T03:55:20;101606.56;;;14.97;100.00
27014;BME280;14556;52.222;4.510;2022-07-29T03:57:47;101606.78;;;14.95;100.00
27014;BME280;14556;52.222;4.510;2022-07-29T04:00:14;101602.19;;;14.96;100.00
27014;BME280;14556;52.222;4.510;2022-07-29T04:02:43;101613.81;;;14.96;100.00
27014;BME280;14556;52.222;4.510;2022-07-29T04:05:14;101613.59;;;14.98;100.00
27014;BME280;14556;52.222;4.510;2022-07-29T04:07:45;101614.03;;;14.95;100.00
27014;BME280;14556;52.222;4.510;2022-07-29T04:10:11;101611.13;;;14.96;100.00
27014;BME280;14556;52.222;4.510;2022-07-29T04:12:38;101617.34;;;14.97;100.00
27014;BME280;14556;52.222;4.510;2022-07-29T04:15:05;101619.63;;;14.93;100.00
27014;BME280;14556;52.222;4.510;2022-07-29T04:17:31;101624.81;;;14.95;100.00
27014;BME280;14556;52.222;4.510;2022-07-29T04:19:58;101625.63;;;14.89;100.00
27014;BME280;14556;52.222;4.510;2022-07-29T04:22:24;101623.97;;;14.88;100.00
27014;BME280;14556;52.222;4.510;2022-07-29T04:24:52;101623.13;;;14.87;100.00
27014;BME280;14556;52.222;4.510;2022-07-29T04:27:19;101622.34;;;14.86;100.00
27014;BME280;14556;52.222;4.510;2022-07-29T04:29:46;101617.34;;;14.83;100.00
27014;BME280;14556;52.222;4.510;2022-07-29T04:32:23;101621.91;;;14.83;100.00
27014;BME280;14556;52.222;4.510;2022-07-29T04:34:50;101615.69;;;14.82;100.00
27014;BME280;14556;52.222;4.510;2022-07-29T04:37:16;101618.19;;;14.84;100.00
27014;BME280;14556;52.222;4.510;2022-07-29T04:39:43;101617.34;;;14.83;100.00
27014;BME280;14556;52.222;4.510;2022-07-29T04:42:09;101628.13;;;14.83;100.00
27014;BME280;14556;52.222;4.510;2022-07-29T04:44:36;101611.94;;;14.83;100.00
27014;BME280;14556;52.222;4.510;2022-07-29T04:47:08;101617.97;;;14.85;100.00
27014;BME280;14556;52.222;4.510;2022-07-29T04:49:37;101613.41;;;14.86;100.00
27014;BME280;14556;52.222;4.510;2022-07-29T04:52:04;101611.13;;;14.90;100.00
27014;BME280;14556;52.222;4.510;2022-07-29T04:54:31;101608.88;;;14.86;100.00
27014;BME280;14556;52.222;4.510;2022-07-29T04:56:57;101619.84;;;14.85;100.00
27014;BME280;14556;52.222;4.510;2022-07-29T04:59:24;101617.34;;;14.83;100.00
27014;BME280;14556;52.222;4.510;2022-07-29T05:01:51;101612.56;;;14.85;100.00
27014;BME280;14556;52.222;4.510;2022-07-29T05:04:17;101614.47;;;14.85;100.00
27014;BME280;14556;52.222;4.510;2022-07-29T05:06:45;101610.50;;;14.88;100.00
27014;BME280;14556;52.222;4.510;2022-07-29T05:09:11;101612.75;;;14.97;100.00
27014;BME280;14556;52.222;4.510;2022-07-29T05:11:38;101610.69;;;15.06;100.00
27014;BME280;14556;52.222;4.510;2022-07-29T05:14:04;101613.16;;;15.08;100.00
27014;BME280;14556;52.222;4.510;2022-07-29T05:16:31;101616.69;;;15.15;100.00
27014;BME280;14556;52.222;4.510;2022-07-29T05:18:57;101614.19;;;15.20;100.00
27014;BME280;14556;52.222;4.510;2022-07-29T05:21:24;101614.38;;;15.26;100.00
27014;BME280;14556;52.222;4.510;2022-07-29T05:23:50;101625.34;;;15.31;100.00
27014;BME280;14556;52.222;4.510;2022-07-29T05:26:17;101622.44;;;15.32;100.00
27014;BME280;14556;52.222;4.510;2022-07-29T05:28:43;101621.19;;;15.35;100.00
27014;BME280;14556;52.222;4.510;2022-07-29T05:31:09;101626.78;;;15.40;100.00
27014;BME280;14556;52.222;4.510;2022-07-29T05:33:36;101631.75;;;15.43;100.00
27014;BME280;14556;52.222;4.510;2022-07-29T05:36:06;101639.63;;;15.45;100.00
27014;BME280;14556;52.222;4.510;2022-07-29T05:38:35;101629.47;;;15.47;100.00
27014;BME280;14556;52.222;4.510;2022-07-29T05:41:02;101638.38;;;15.47;100.00
27014;BME280;14556;52.222;4.510;2022-07-29T05:43:29;101641.28;;;15.46;100.00
27014;BME280;14556;52.222;4.510;2022-07-29T05:45:55;101636.09;;;15.51;100.00
27014;BME280;14556;52.222;4.510;2022-07-29T05:48:22;101639.97;;;15.62;100.00
27014;BME280;14556;52.222;4.510;2022-07-29T05:50:49;101634.75;;;15.74;100.00
27014;BME280;14556;52.222;4.510;2022-07-29T05:53:15;101634.06;;;15.86;100.00
27014;BME280;14556;52.222;4.510;2022-07-29T05:55:46;101641.09;;;16.00;100.00
27014;BME280;14556;52.222;4.510;2022-07-29T05:58:12;101632.09;;;16.13;100.00
27014;BME280;14556;52.222;4.510;2022-07-29T06:00:39;101637.44;;;16.27;100.00
27014;BME280;14556;52.222;4.510;2022-07-29T06:03:06;101626.19;;;16.30;100.00
27014;BME280;14556;52.222;4.510;2022-07-29T06:05:32;101635.09;;;16.30;100.00
27014;BME280;14556;52.222;4.510;2022-07-29T06:07:59;101634.47;;;16.35;100.00
27014;BME280;14556;52.222;4.510;2022-07-29T06:10:25;101632.56;;;16.36;100.00
27014;BME280;14556;52.222;4.510;2022-07-29T06:12:53;101630.53;;;16.31;100.00
27014;BME280;14556;52.222;4.510;2022-07-29T06:15:19;101628.19;;;16.41;100.00
27014;BME280;14556;52.222;4.510;2022-07-29T06:17:46;101632.38;;;16.63;100.00
27014;BME280;14556;52.222;4.510;2022-07-29T06:20:30;101621.91;;;16.73;100.00
27014;BME280;14556;52.222;4.510;2022-07-29T06:22:59;101627.75;;;16.70;100.00
27014;BME280;14556;52.222;4.510;2022-07-29T06:25:26;101627.88;;;16.82;100.00
27014;BME280;14556;52.222;4.510;2022-07-29T06:27:55;101637.53;;;16.90;100.00
27014;BME280;14556;52.222;4.510;2022-07-29T06:30:23;101634.34;;;17.00;100.00
27014;BME280;14556;52.222;4.510;2022-07-29T06:32:49;101638.81;;;17.13;100.00
27014;BME280;14556;52.222;4.510;2022-07-29T06:35:17;101636.56;;;17.28;100.00
27014;BME280;14556;52.222;4.510;2022-07-29T06:38:04;101645.00;;;17.39;100.00
27014;BME280;14556;52.222;4.510;2022-07-29T06:40:50;101643.56;;;17.55;100.00
27014;BME280;14556;52.222;4.510;2022-07-29T06:43:28;101642.13;;;17.71;100.00
27014;BME280;14556;52.222;4.510;2022-07-29T06:46:02;101638.31;;;17.79;100.00
27014;BME280;14556;52.222;4.510;2022-07-29T06:48:29;101642.13;;;17.71;100.00
27014;BME280;14556;52.222;4.510;2022-07-29T06:50:55;101641.28;;;17.71;100.00
27014;BME280;14556;52.222;4.510;2022-07-29T06:53:22;101648.63;;;17.70;100.00
27014;BME280;14556;52.222;4.510;2022-07-29T06:55:49;101646.28;;;17.74;100.00
27014;BME280;14556;52.222;4.510;2022-07-29T06:58:15;101648.66;;;17.82;100.00
27014;BME280;14556;52.222;4.510;2022-07-29T07:00:44;101647.38;;;17.85;100.00
27014;BME280;14556;52.222;4.510;2022-07-29T07:03:11;101646.97;;;18.00;100.00
27014;BME280;14556;52.222;4.510;2022-07-29T07:05:37;101654.41;;;18.05;100.00
27014;BME280;14556;52.222;4.510;2022-07-29T07:08:04;101652.25;;;17.95;100.00
27014;BME280;14556;52.222;4.510;2022-07-29T07:10:30;101653.25;;;17.82;100.00
27014;BME280;14556;52.222;4.510;2022-07-29T07:12:57;101655.06;;;17.69;100.00
27014;BME280;14556;52.222;4.510;2022-07-29T07:15:23;101654.06;;;17.63;100.00
27014;BME280;14556;52.222;4.510;2022-07-29T07:18:06;101656.78;;;17.63;100.00
27014;BME280;14556;52.222;4.510;2022-07-29T07:20:33;101658.00;;;17.68;100.00
27014;BME280;14556;52.222;4.510;2022-07-29T07:23:00;101664.69;;;17.65;100.00
27014;BME280;14556;52.222;4.510;2022-07-29T07:25:26;101659.84;;;17.67;100.00
27014;BME280;14556;52.222;4.510;2022-07-29T07:27:53;101656.63;;;17.77;100.00
27014;BME280;14556;52.222;4.510;2022-07-29T07:30:19;101649.97;;;17.92;100.00
27014;BME280;14556;52.222;4.510;2022-07-29T07:32:46;101661.09;;;18.21;100.00
27014;BME280;14556;52.222;4.510;2022-07-29T07:35:12;101654.88;;;18.32;100.00
27014;BME280;14556;52.222;4.510;2022-07-29T07:37:39;101660.53;;;18.31;100.00
27014;BME280;14556;52.222;4.510;2022-07-29T07:40:09;101655.94;;;18.12;100.00
27014;BME280;14556;52.222;4.510;2022-07-29T07:42:35;101658.25;;;18.16;100.00
27014;BME280;14556;52.222;4.510;2022-07-29T07:45:06;101654.72;;;18.15;99.51
27014;BME280;14556;52.222;4.510;2022-07-29T07:47:42;101650.19;;;18.09;100.00
27014;BME280;14556;52.222;4.510;2022-07-29T07:50:10;101653.94;;;18.08;100.00
27014;BME280;14556;52.222;4.510;2022-07-29T07:52:51;101658.63;;;18.19;100.00
27014;BME280;14556;52.222;4.510;2022-07-29T07:55:18;101649.22;;;18.34;100.00
27014;BME280;14556;52.222;4.510;2022-07-29T07:57:45;101650.78;;;18.42;99.35
27014;BME280;14556;52.222;4.510;2022-07-29T08:00:13;101656.44;;;18.40;100.00
27014;BME280;14556;52.222;4.510;2022-07-29T08:02:40;101650.81;;;18.54;100.00
27014;BME280;14556;52.222;4.510;2022-07-29T08:05:09;101661.56;;;18.84;99.61
27014;BME280;14556;52.222;4.510;2022-07-29T08:07:38;101635.16;;;19.04;93.71
27014;BME280;14556;52.222;4.510;2022-07-29T08:10:05;101640.94;;;19.07;91.17
27014;BME280;14556;52.222;4.510;2022-07-29T08:12:31;101644.38;;;19.03;93.92
27014;BME280;14556;52.222;4.510;2022-07-29T08:14:58;101644.72;;;19.06;93.65
27014;BME280;14556;52.222;4.510;2022-07-29T08:17:25;101646.25;;;19.14;90.94
27014;BME280;14556;52.222;4.510;2022-07-29T08:19:52;101648.81;;;19.09;92.40
27014;BME280;14556;52.222;4.510;2022-07-29T08:22:19;101658.41;;;19.12;91.08
27014;BME280;14556;52.222;4.510;2022-07-29T08:24:45;101653.47;;;19.20;92.15
27014;BME280;14556;52.222;4.510;2022-07-29T08:27:22;101659.56;;;19.40;91.59
27014;BME280;14556;52.222;4.510;2022-07-29T08:30:09;101660.13;;;19.54;87.21
27014;BME280;14556;52.222;4.510;2022-07-29T08:32:36;101652.22;;;19.52;85.97
27014;BME280;14556;52.222;4.510;2022-07-29T08:35:20;101648.09;;;19.50;88.51
27014;BME280;14556;52.222;4.510;2022-07-29T08:37:47;101645.50;;;19.55;88.19
27014;BME280;14556;52.222;4.510;2022-07-29T08:40:14;101657.78;;;19.57;87.42
27014;BME280;14556;52.222;4.510;2022-07-29T08:42:40;101648.19;;;19.55;87.52
27014;BME280;14556;52.222;4.510;2022-07-29T08:45:07;101655.72;;;19.65;88.95
27014;BME280;14556;52.222;4.510;2022-07-29T08:47:34;101643.78;;;19.78;88.52
27014;BME280;14556;52.222;4.510;2022-07-29T08:50:07;101622.66;;;19.80;86.14
27014;BME280;14556;52.222;4.510;2022-07-29T08:52:36;101644.47;;;19.85;84.96
27014;BME280;14556;52.222;4.510;2022-07-29T08:55:06;101646.94;;;19.87;85.71
27014;BME280;14556;52.222;4.510;2022-07-29T08:57:33;101651.38;;;20.05;87.42
27014;BME280;14556;52.222;4.510;2022-07-29T09:00:06;101642.34;;;20.16;83.62
27014;BME280;14556;52.222;4.510;2022-07-29T09:02:45;101644.81;;;20.18;83.13
27014;BME280;14556;52.222;4.510;2022-07-29T09:05:14;101649.41;;;20.17;82.57
27014;BME280;14556;52.222;4.510;2022-07-29T09:07:41;101651.31;;;20.17;81.25
27014;BME280;14556;52.222;4.510;2022-07-29T09:10:09;101644.31;;;20.21;77.30
27014;BME280;14556;52.222;4.510;2022-07-29T09:12:38;101640.63;;;20.27;77.31
27014;BME280;14556;52.222;4.510;2022-07-29T09:15:05;101650.50;;;20.34;78.24
27014;BME280;14556;52.222;4.510;2022-07-29T09:17:42;101620.38;;;20.35;77.03
27014;BME280;14556;52.222;4.510;2022-07-29T09:20:13;101636.13;;;20.50;74.80
27014;BME280;14556;52.222;4.510;2022-07-29T09:22:40;101634.88;;;20.58;73.63
27014;BME280;14556;52.222;4.510;2022-07-29T09:25:08;101645.50;;;20.77;73.99
27014;BME280;14556;52.222;4.510;2022-07-29T09:27:35;101637.47;;;20.87;72.63
27014;BME280;14556;52.222;4.510;2022-07-29T09:30:09;101635.34;;;20.89;74.24
27014;BME280;14556;52.222;4.510;2022-07-29T09:32:58;101619.81;;;20.68;73.07
27014;BME280;14556;52.222;4.510;2022-07-29T09:35:27;101641.56;;;20.68;71.53
27014;BME280;14556;52.222;4.510;2022-07-29T09:37:54;101641.56;;;20.68;75.15
27014;BME280;14556;52.222;4.510;2022-07-29T09:40:23;101633.41;;;20.68;73.69
27014;BME280;14556;52.222;4.510;2022-07-29T09:42:51;101641.91;;;20.54;73.94
27014;BME280;14556;52.222;4.510;2022-07-29T09:45:33;101639.56;;;20.46;75.81
27014;BME280;14556;52.222;4.510;2022-07-29T09:48:22;101639.97;;;20.54;75.28
27014;BME280;14556;52.222;4.510;2022-07-29T09:50:49;101636.34;;;20.83;75.61
27014;BME280;14556;52.222;4.510;2022-07-29T09:53:37;101630.13;;;21.22;73.88
27014;BME280;14556;52.222;4.510;2022-07-29T09:56:04;101626.19;;;21.35;68.35
27014;BME280;14556;52.222;4.510;2022-07-29T09:58:31;101636.56;;;21.38;72.78
27014;BME280;14556;52.222;4.510;2022-07-29T10:01:00;101626.53;;;21.39;70.14
27014;BME280;14556;52.222;4.510;2022-07-29T10:03:26;101635.78;;;21.38;72.23
27014;BME280;14556;52.222;4.510;2022-07-29T10:06:11;101630.78;;;21.52;73.32
27014;BME280;14556;52.222;4.510;2022-07-29T10:08:41;101617.88;;;21.70;71.06
27014;BME280;14556;52.222;4.510;2022-07-29T10:11:17;101641.78;;;21.85;69.27
27014;BME280;14556;52.222;4.510;2022-07-29T10:13:46;101633.66;;;21.90;67.23
27014;BME280;14556;52.222;4.510;2022-07-29T10:16:14;101631.41;;;22.09;64.74
27014;BME280;14556;52.222;4.510;2022-07-29T10:18:42;101628.09;;;22.07;63.56
27014;BME280;14556;52.222;4.510;2022-07-29T10:21:10;101632.72;;;22.07;65.87
27014;BME280;14556;52.222;4.510;2022-07-29T10:23:48;101637.41;;;22.12;65.83
27014;BME280;14556;52.222;4.510;2022-07-29T10:26:15;101628.16;;;22.13;67.36
27014;BME280;14556;52.222;4.510;2022-07-29T10:28:41;101633.34;;;22.14;65.93
27014;BME280;14556;52.222;4.510;2022-07-29T10:31:14;101632.50;;;22.14;65.01
27014;BME280;14556;52.222;4.510;2022-07-29T10:36:59;101626.03;;;22.20;62.58
27014;BME280;14556;52.222;4.510;2022-07-29T10:40:07;101630.13;;;22.22;62.56
27014;BME280;14556;52.222;4.510;2022-07-29T10:42:58;101617.09;;;22.25;60.16
27014;BME280;14556;52.222;4.510;2022-07-29T10:45:29;101628.47;;;22.16;60.83
27014;BME280;14556;52.222;4.510;2022-07-29T10:48:04;101618.47;;;22.27;60.85
27014;BME280;14556;52.222;4.510;2022-07-29T10:50:53;101621.75;;;22.29;61.56
27014;BME280;14556;52.222;4.510;2022-07-29T10:53:22;101625.88;;;22.32;60.49
27014;BME280;14556;52.222;4.510;2022-07-29T10:55:51;101617.38;;;22.28;60.16
27014;BME280;14556;52.222;4.510;2022-07-29T10:58:23;101612.50;;;22.30;60.58
27014;BME280;14556;52.222;4.510;2022-07-29T11:00:53;101615.09;;;22.48;58.87
27014;BME280;14556;52.222;4.510;2022-07-29T11:06:16;101614.75;;;22.77;58.89
27014;BME280;14556;52.222;4.510;2022-07-29T11:09:15;101613.50;;;22.90;55.85
27014;BME280;14556;52.222;4.510;2022-07-29T11:11:42;101615.84;;;22.76;58.31
27014;BME280;14556;52.222;4.510;2022-07-29T11:14:12;101608.47;;;22.71;57.51
27014;BME280;14556;52.222;4.510;2022-07-29T11:17:04;101606.31;;;22.78;59.14
27014;BME280;14556;52.222;4.510;2022-07-29T11:19:32;101611.19;;;22.71;60.17
27014;BME280;14556;52.222;4.510;2022-07-29T11:22:01;101599.72;;;22.69;59.07
27014;BME280;14556;52.222;4.510;2022-07-29T11:24:29;101600.56;;;22.69;59.99
27014;BME280;14556;52.222;4.510;2022-07-29T11:27:18;101610.28;;;22.60;60.72
27014;BME280;14556;52.222;4.510;2022-07-29T11:29:55;101610.91;;;22.67;60.42
27014;BME280;14556;52.222;4.510;2022-07-29T11:32:36;101608.50;;;22.76;59.67
27014;BME280;14556;52.222;4.510;2022-07-29T11:38:24;101601.25;;;23.03;58.76
27014;BME280;14556;52.222;4.510;2022-07-29T11:43:54;101601.31;;;23.08;55.91
27014;BME280;14556;52.222;4.510;2022-07-29T11:49:18;101601.84;;;23.10;56.82
27014;BME280;14556;52.222;4.510;2022-07-29T11:51:55;101600.72;;;23.01;57.67
27014;BME280;14556;52.222;4.510;2022-07-29T11:54:25;101615.47;;;23.05;60.35
27014;BME280;14556;52.222;4.510;2022-07-29T11:56:57;101612.25;;;23.13;59.68
27014;BME280;14556;52.222;4.510;2022-07-29T11:59:24;101613.16;;;23.35;60.53
27014;BME280;14556;52.222;4.510;2022-07-29T12:01:59;101613.94;;;23.25;61.71
27014;BME280;14556;52.222;4.510;2022-07-29T12:04:50;101610.88;;;23.11;62.35
27014;BME280;14556;52.222;4.510;2022-07-29T12:07:18;101607.41;;;23.31;59.79
27014;BME280;14556;52.222;4.510;2022-07-29T12:10:01;101613.13;;;23.29;59.61
27014;BME280;14556;52.222;4.510;2022-07-29T12:12:28;101606.53;;;23.15;61.19
27014;BME280;14556;52.222;4.510;2022-07-29T12:14:55;101617.94;;;23.12;61.74
27014;BME280;14556;52.222;4.510;2022-07-29T12:17:28;101623.69;;;23.15;63.30
27014;BME280;14556;52.222;4.510;2022-07-29T12:19:59;101619.63;;;23.13;63.83
27014;BME280;14556;52.222;4.510;2022-07-29T12:22:30;101627.78;;;23.08;64.51
27014;BME280;14556;52.222;4.510;2022-07-29T12:25:11;101617.13;;;23.06;64.53
27014;BME280;14556;52.222;4.510;2022-07-29T12:28:02;101626.72;;;23.19;64.87
27014;BME280;14556;52.222;4.510;2022-07-29T12:30:46;101626.19;;;23.22;63.84
27014;BME280;14556;52.222;4.510;2022-07-29T12:33:20;101626.19;;;23.22;61.22
27014;BME280;14556;52.222;4.510;2022-07-29T12:35:51;101628.91;;;23.22;61.35
27014;BME280;14556;52.222;4.510;2022-07-29T12:38:32;101640.38;;;23.19;64.03
27014;BME280;14556;52.222;4.510;2022-07-29T12:41:01;101642.28;;;23.18;62.38
27014;BME280;14556;52.222;4.510;2022-07-29T12:43:30;101638.72;;;23.13;63.72
27014;BME280;14556;52.222;4.510;2022-07-29T12:45:57;101643.94;;;23.19;63.07
27014;BME280;14556;52.222;4.510;2022-07-29T12:48:37;101640.38;;;23.19;64.05
27014;BME280;14556;52.222;4.510;2022-07-29T12:51:05;101629.72;;;23.17;63.14
27014;BME280;14556;52.222;4.510;2022-07-29T12:53:33;101633.50;;;23.06;65.55
27014;BME280;14556;52.222;4.510;2022-07-29T12:56:02;101622.00;;;22.99;65.75
27014;BME280;14556;52.222;4.510;2022-07-29T12:58:49;101630.19;;;22.99;66.34
27014;BME280;14556;52.222;4.510;2022-07-29T13:01:17;101639.75;;;23.06;65.49
27014;BME280;14556;52.222;4.510;2022-07-29T13:03:58;101632.66;;;23.05;65.65
27014;BME280;14556;52.222;4.510;2022-07-29T13:06:39;101626.66;;;23.03;66.12
27014;BME280;14556;52.222;4.510;2022-07-29T13:09:10;101628.53;;;23.03;65.50
27014;BME280;14556;52.222;4.510;2022-07-29T13:14:29;101619.66;;;23.23;64.26
27014;BME280;14556;52.222;4.510;2022-07-29T13:17:06;101637.19;;;23.38;65.14
27014;BME280;14556;52.222;4.510;2022-07-29T13:19:39;101625.44;;;23.37;63.53
27014;BME280;14556;52.222;4.510;2022-07-29T13:22:13;101628.44;;;23.36;63.67
27014;BME280;14556;52.222;4.510;2022-07-29T13:27:20;101630.13;;;23.42;62.17